Zim Qingdao — A8IZ2 — position and weather

sailwx.info

Track history (hours):
 
Tides and Currents Weather Stations Pressure Air Temp Water Temp Dewpoint Dewpoint Depression Visibility Wind Speed Wind Dir Waves Ship Positions

Zim Qingdao

Last reported at 2015-Jun-27 21:09 UTC. Time now 2015-Jun-30 03:32 UTC.
Position N 37°45' E 016°02'.

Length 260.61 m; beam 32.25 m; draft 12.6 m.

Type: Cargo ship. MMSI: 636012904.

Date/timePositionNaut miles runAvg speedWind from/ knotsBaromVisibWave heightAir tempDewpointWater temp
2015-Jun-27 21:09N 37°45' E 016°02'1015.5
2015-Jun-27 20:28N 37°49' E 015°50'1415.1
2015-Jun-27 19:33N 37°58' E 015°36'1615.7
2015-Jun-27 18:34N 38°13' E 015°36'8 8.2
2015-Jun-27 17:33N 38°21' E 015°37'1414.5
2015-Jun-27 16:33N 38°32' E 015°24'1615.8
2015-Jun-27 15:33N 38°43' E 015°09'1616.7
2015-Jun-27 14:33N 38°54' E 014°54'16816.1
2015-Jun-27 04:07N 40°47' E 012°12'1415.6
2015-Jun-27 03:14N 40°56' E 011°59'3016.0
2015-Jun-27 01:22N 41°16' E 011°29'1816.3
2015-Jun-27 00:16N 41°28' E 011°11'5915.8
2015-Jun-26 20:32N 42°08' E 010°13'1615.6
2015-Jun-26 19:32N 42°19' E 009°58'1515.7
2015-Jun-26 18:33N 42°34' E 009°56'1615.7
2015-Jun-26 17:33N 42°50' E 010°00'1615.9
2015-Jun-26 16:33N 43°05' E 010°05'1615.8
2015-Jun-26 15:31N 43°22' E 010°09'1212.7
2015-Jun-26 14:33N 43°32' E 010°17'2 2.4
2015-Jun-26 13:32N 43°35' E 010°18'0 0.0
2015-Jun-26 12:29N 43°35' E 010°18'0 0.0
2015-Jun-26 11:32N 43°35' E 010°18'0 0.0
2015-Jun-26 10:32N 43°35' E 010°18'0 0.0
2015-Jun-26 09:32N 43°35' E 010°18'0 0.0
2015-Jun-26 08:32N 43°35' E 010°18'0 0.0
2015-Jun-26 07:32N 43°35' E 010°18'0 0.0
2015-Jun-26 06:32N 43°35' E 010°18'0 0.0
2015-Jun-26 05:32N 43°35' E 010°18'0 0.0
2015-Jun-26 04:32N 43°35' E 010°18'0 0.0
2015-Jun-26 03:32N 43°35' E 010°18'0 0.0
2015-Jun-26 02:26N 43°35' E 010°18'0 0.0
2015-Jun-26 01:32N 43°35' E 010°18'0 0.0
2015-Jun-26 00:32N 43°35' E 010°18'0 0.0
2015-Jun-25 23:32N 43°35' E 010°18'0 0.0
2015-Jun-25 22:29N 43°35' E 010°18'0 0.0
2015-Jun-25 21:32N 43°35' E 010°18'0 0.0
2015-Jun-25 20:32N 43°35' E 010°18'0 0.0
2015-Jun-25 19:29N 43°35' E 010°18'0 0.0
2015-Jun-25 18:32N 43°35' E 010°18'0 0.0
2015-Jun-25 17:32N 43°35' E 010°18'0 0.0
2015-Jun-25 16:32N 43°35' E 010°18'0 0.0
2015-Jun-25 15:32N 43°35' E 010°18'0 0.0
2015-Jun-25 14:32N 43°35' E 010°18'0 0.0
2015-Jun-25 13:32N 43°35' E 010°18'0 0.0
2015-Jun-25 12:26N 43°35' E 010°18'0 0.0
2015-Jun-25 11:32N 43°35' E 010°18'0 0.0
2015-Jun-25 10:32N 43°35' E 010°18'0 0.0
2015-Jun-25 09:32N 43°35' E 010°18'1 0.7
2015-Jun-25 08:33N 43°34' E 010°18'7 6.9
2015-Jun-25 07:33N 43°29' E 010°12'1110.6
2015-Jun-25 06:33N 43°22' E 010°01'1110.7
2015-Jun-25 05:33N 43°17' E 009°48'1010.3
2015-Jun-25 04:33N 43°13' E 009°35'1010.4
2015-Jun-25 03:33N 43°10' E 009°21'1110.5
2015-Jun-25 02:31N 43°06' E 009°07'1111.1
2015-Jun-25 01:33N 43°02' E 008°54'1210.9
2015-Jun-25 00:28N 42°58' E 008°39'1111.0
2015-Jun-24 23:26N 42°54' E 008°24'14711.4
2015-Jun-24 10:33N 42°02' E 005°18'13111.0
2015-Jun-23 22:33N 41°15' E 002°33'1111.2
2015-Jun-23 21:33N 41°11' E 002°19'1211.1
2015-Jun-23 20:30N 41°08' E 002°04'1111.3
2015-Jun-23 19:29N 41°05' E 001°50'711.2
2015-Jun-23 18:54N 41°04' E 001°41'133 5.7
2015-Jun-22 19:31N 39°27' W 000°19'0 0.0
2015-Jun-22 18:31N 39°27' W 000°19'0 0.0
2015-Jun-22 17:31N 39°27' W 000°19'0 0.0
2015-Jun-22 16:31N 39°27' W 000°19'0 0.0
2015-Jun-22 15:31N 39°27' W 000°19'0 0.0
2015-Jun-22 14:28N 39°27' W 000°19'0 0.0
2015-Jun-22 13:31N 39°27' W 000°19'0 0.0
2015-Jun-22 12:28N 39°27' W 000°19'0 0.0
2015-Jun-22 11:31N 39°27' W 000°19'0 0.0
2015-Jun-22 10:31N 39°27' W 000°19'0 0.0
2015-Jun-22 09:31N 39°27' W 000°19'0 0.0
2015-Jun-22 08:31N 39°27' W 000°19'0 0.0
2015-Jun-22 07:31N 39°27' W 000°19'0 0.0
2015-Jun-22 06:28N 39°27' W 000°19'0 0.0
2015-Jun-22 05:31N 39°27' W 000°19'0 0.0
2015-Jun-22 04:33N 39°27' W 000°19'5 4.8
2015-Jun-22 03:33N 39°24' W 000°14'5811.5
2015-Jun-21 22:32N 38°33' E 000°20'1814.5
2015-Jun-21 21:18N 38°18' E 000°07'1114.2
2015-Jun-21 20:33N 38°09' W 000°00'1414.3
2015-Jun-21 19:33N 37°57' W 000°11'1414.4
2015-Jun-21 18:33N 37°45' W 000°21'1414.1
2015-Jun-21 17:33N 37°34' W 000°30'1413.9
2015-Jun-21 16:34N 37°24' W 000°43'1414.0
2015-Jun-21 15:32N 37°14' W 000°57'1414.1
2015-Jun-21 14:33N 37°06' W 001°10'5913.9
2015-Jun-21 10:17N 36°26' W 002°05'1113.3
2015-Jun-21 09:29N 36°21' W 002°17'1314.3
2015-Jun-21 08:33N 36°19' W 002°34'1715.4
2015-Jun-21 07:27N 36°17' W 002°54'1415.5
2015-Jun-21 06:34N 36°15' W 003°11'9916.6
2015-Jun-21 00:34N 35°59' W 005°13'1917.8
2015-Jun-20 23:28N 35°55' W 005°36'9816.3
2015-Jun-20 17:27N 35°54' W 007°38'5115.8
2015-Jun-20 14:12N 36°09' W 008°38'1015.9
2015-Jun-20 13:33N 36°13' W 008°50'1616.1
2015-Jun-20 12:33N 36°18' W 009°09'1616.1
2015-Jun-20 11:34N 36°23' W 009°28'1615.9
2015-Jun-20 10:33N 36°28' W 009°47'1615.9
2015-Jun-20 09:34N 36°33' W 010°06'1615.9
2015-Jun-20 08:33N 36°38' W 010°24'1615.7
2015-Jun-20 07:33N 36°43' W 010°43'1515.6
2015-Jun-20 06:33N 36°47' W 011°01'1615.9
2015-Jun-20 05:33N 36°51' W 011°21'1615.8
2015-Jun-20 04:33N 36°55' W 011°40'1616.0
2015-Jun-20 03:33N 36°59' W 011°59'1616.1
2015-Jun-20 02:33N 37°03' W 012°19'1615.9
2015-Jun-20 01:33N 37°06' W 012°38'1615.7
2015-Jun-20 00:34N 37°10' W 012°58'1615.7
2015-Jun-19 23:34N 37°13' W 013°17'1616.0
2015-Jun-19 22:33N 37°17' W 013°36'1616.1
2015-Jun-19 21:33N 37°20' W 013°56'1616.1
2015-Jun-19 20:33N 37°24' W 014°16'1515.7
2015-Jun-19 19:33N 37°27' W 014°35'1615.8
2015-Jun-19 18:33N 37°30' W 014°55'1715.6
2015-Jun-19 17:26N 37°34' W 015°16'2915.5
2015-Jun-19 15:32N 37°40' W 015°53'40215.4
2015-Jun-18 13:29N 38°40' W 024°19'1515.9
2015-Jun-18 12:33N 38°42' W 024°37'1615.9
2015-Jun-18 11:33N 38°43' W 024°58'1615.9
2015-Jun-18 10:33N 38°45' W 025°18'1616.1
2015-Jun-18 09:33N 38°46' W 025°38'1616.2
2015-Jun-18 08:33N 38°48' W 025°59'1616.1
2015-Jun-18 07:33N 38°49' W 026°20'3616.5
2015-Jun-18 05:24N 38°52' W 027°05'1416.1
2015-Jun-18 04:33N 38°53' W 027°23'1616.3
2015-Jun-18 03:33N 38°54' W 027°43'1616.4
2015-Jun-18 02:33N 38°55' W 028°05'1616.1
2015-Jun-18 01:33N 38°56' W 028°25'1716.5
2015-Jun-18 00:33N 38°57' W 028°46'1616.5
2015-Jun-17 23:33N 38°58' W 029°08'1616.3
2015-Jun-17 22:33N 38°59' W 029°28'1616.1
2015-Jun-17 21:33N 38°60' W 029°49'  
Track history (hours):
 
Tides and Currents Weather Stations Pressure Air Temp Water Temp Dewpoint Dewpoint Depression Visibility Wind Speed Wind Dir Waves Ship Positions

Zim Qingdao

Last reported at 2015-Jun-27 21:09 UTC. Time now 2015-Jun-30 03:32 UTC.
Position N 37°45' E 016°02'.

Length 260.61 m; beam 32.25 m; draft 12.6 m.

Type: Cargo ship. MMSI: 636012904.

Date/timePositionNaut miles runAvg speedWind from/ knotsBaromVisibWave heightAir tempDewpointWater temp
2015-Jun-27 21:09N 37°45' E 016°02'1015.5
2015-Jun-27 20:28N 37°49' E 015°50'1415.1
2015-Jun-27 19:33N 37°58' E 015°36'1615.7
2015-Jun-27 18:34N 38°13' E 015°36'8 8.2
2015-Jun-27 17:33N 38°21' E 015°37'1414.5
2015-Jun-27 16:33N 38°32' E 015°24'1615.8
2015-Jun-27 15:33N 38°43' E 015°09'1616.7
2015-Jun-27 14:33N 38°54' E 014°54'16816.1
2015-Jun-27 04:07N 40°47' E 012°12'1415.6
2015-Jun-27 03:14N 40°56' E 011°59'3016.0
2015-Jun-27 01:22N 41°16' E 011°29'1816.3
2015-Jun-27 00:16N 41°28' E 011°11'5915.8
2015-Jun-26 20:32N 42°08' E 010°13'1615.6
2015-Jun-26 19:32N 42°19' E 009°58'1515.7
2015-Jun-26 18:33N 42°34' E 009°56'1615.7
2015-Jun-26 17:33N 42°50' E 010°00'1615.9
2015-Jun-26 16:33N 43°05' E 010°05'1615.8
2015-Jun-26 15:31N 43°22' E 010°09'1212.7
2015-Jun-26 14:33N 43°32' E 010°17'2 2.4
2015-Jun-26 13:32N 43°35' E 010°18'0 0.0
2015-Jun-26 12:29N 43°35' E 010°18'0 0.0
2015-Jun-26 11:32N 43°35' E 010°18'0 0.0
2015-Jun-26 10:32N 43°35' E 010°18'0 0.0
2015-Jun-26 09:32N 43°35' E 010°18'0 0.0
2015-Jun-26 08:32N 43°35' E 010°18'0 0.0
2015-Jun-26 07:32N 43°35' E 010°18'0 0.0
2015-Jun-26 06:32N 43°35' E 010°18'0 0.0
2015-Jun-26 05:32N 43°35' E 010°18'0 0.0
2015-Jun-26 04:32N 43°35' E 010°18'0 0.0
2015-Jun-26 03:32N 43°35' E 010°18'0 0.0
2015-Jun-26 02:26N 43°35' E 010°18'0 0.0
2015-Jun-26 01:32N 43°35' E 010°18'0 0.0
2015-Jun-26 00:32N 43°35' E 010°18'0 0.0
2015-Jun-25 23:32N 43°35' E 010°18'0 0.0
2015-Jun-25 22:29N 43°35' E 010°18'0 0.0
2015-Jun-25 21:32N 43°35' E 010°18'0 0.0
2015-Jun-25 20:32N 43°35' E 010°18'0 0.0
2015-Jun-25 19:29N 43°35' E 010°18'0 0.0
2015-Jun-25 18:32N 43°35' E 010°18'0 0.0
2015-Jun-25 17:32N 43°35' E 010°18'0 0.0
2015-Jun-25 16:32N 43°35' E 010°18'0 0.0
2015-Jun-25 15:32N 43°35' E 010°18'0 0.0
2015-Jun-25 14:32N 43°35' E 010°18'0 0.0
2015-Jun-25 13:32N 43°35' E 010°18'0 0.0
2015-Jun-25 12:26N 43°35' E 010°18'0 0.0
2015-Jun-25 11:32N 43°35' E 010°18'0 0.0
2015-Jun-25 10:32N 43°35' E 010°18'0 0.0
2015-Jun-25 09:32N 43°35' E 010°18'1 0.7
2015-Jun-25 08:33N 43°34' E 010°18'7 6.9
2015-Jun-25 07:33N 43°29' E 010°12'1110.6
2015-Jun-25 06:33N 43°22' E 010°01'1110.7
2015-Jun-25 05:33N 43°17' E 009°48'1010.3
2015-Jun-25 04:33N 43°13' E 009°35'1010.4
2015-Jun-25 03:33N 43°10' E 009°21'1110.5
2015-Jun-25 02:31N 43°06' E 009°07'1111.1
2015-Jun-25 01:33N 43°02' E 008°54'1210.9
2015-Jun-25 00:28N 42°58' E 008°39'1111.0
2015-Jun-24 23:26N 42°54' E 008°24'14711.4
2015-Jun-24 10:33N 42°02' E 005°18'13111.0
2015-Jun-23 22:33N 41°15' E 002°33'1111.2
2015-Jun-23 21:33N 41°11' E 002°19'1211.1
2015-Jun-23 20:30N 41°08' E 002°04'1111.3
2015-Jun-23 19:29N 41°05' E 001°50'711.2
2015-Jun-23 18:54N 41°04' E 001°41'133 5.7
2015-Jun-22 19:31N 39°27' W 000°19'0 0.0
2015-Jun-22 18:31N 39°27' W 000°19'0 0.0
2015-Jun-22 17:31N 39°27' W 000°19'0 0.0
2015-Jun-22 16:31N 39°27' W 000°19'0 0.0
2015-Jun-22 15:31N 39°27' W 000°19'0 0.0
2015-Jun-22 14:28N 39°27' W 000°19'0 0.0
2015-Jun-22 13:31N 39°27' W 000°19'0 0.0
2015-Jun-22 12:28N 39°27' W 000°19'0 0.0
2015-Jun-22 11:31N 39°27' W 000°19'0 0.0
2015-Jun-22 10:31N 39°27' W 000°19'0 0.0
2015-Jun-22 09:31N 39°27' W 000°19'0 0.0
2015-Jun-22 08:31N 39°27' W 000°19'0 0.0
2015-Jun-22 07:31N 39°27' W 000°19'0 0.0
2015-Jun-22 06:28N 39°27' W 000°19'0 0.0
2015-Jun-22 05:31N 39°27' W 000°19'0 0.0
2015-Jun-22 04:33N 39°27' W 000°19'5 4.8
2015-Jun-22 03:33N 39°24' W 000°14'5811.5
2015-Jun-21 22:32N 38°33' E 000°20'1814.5
2015-Jun-21 21:18N 38°18' E 000°07'1114.2
2015-Jun-21 20:33N 38°09' W 000°00'1414.3
2015-Jun-21 19:33N 37°57' W 000°11'1414.4
2015-Jun-21 18:33N 37°45' W 000°21'1414.1
2015-Jun-21 17:33N 37°34' W 000°30'1413.9
2015-Jun-21 16:34N 37°24' W 000°43'1414.0
2015-Jun-21 15:32N 37°14' W 000°57'1414.1
2015-Jun-21 14:33N 37°06' W 001°10'5913.9
2015-Jun-21 10:17N 36°26' W 002°05'1113.3
2015-Jun-21 09:29N 36°21' W 002°17'1314.3
2015-Jun-21 08:33N 36°19' W 002°34'1715.4
2015-Jun-21 07:27N 36°17' W 002°54'1415.5
2015-Jun-21 06:34N 36°15' W 003°11'9916.6
2015-Jun-21 00:34N 35°59' W 005°13'1917.8
2015-Jun-20 23:28N 35°55' W 005°36'9816.3
2015-Jun-20 17:27N 35°54' W 007°38'5115.8
2015-Jun-20 14:12N 36°09' W 008°38'1015.9
2015-Jun-20 13:33N 36°13' W 008°50'1616.1
2015-Jun-20 12:33N 36°18' W 009°09'1616.1
2015-Jun-20 11:34N 36°23' W 009°28'1615.9
2015-Jun-20 10:33N 36°28' W 009°47'1615.9
2015-Jun-20 09:34N 36°33' W 010°06'1615.9
2015-Jun-20 08:33N 36°38' W 010°24'1615.7
2015-Jun-20 07:33N 36°43' W 010°43'1515.6
2015-Jun-20 06:33N 36°47' W 011°01'1615.9
2015-Jun-20 05:33N 36°51' W 011°21'1615.8
2015-Jun-20 04:33N 36°55' W 011°40'1616.0
2015-Jun-20 03:33N 36°59' W 011°59'1616.1
2015-Jun-20 02:33N 37°03' W 012°19'1615.9
2015-Jun-20 01:33N 37°06' W 012°38'1615.7
2015-Jun-20 00:34N 37°10' W 012°58'1615.7
2015-Jun-19 23:34N 37°13' W 013°17'1616.0
2015-Jun-19 22:33N 37°17' W 013°36'1616.1
2015-Jun-19 21:33N 37°20' W 013°56'1616.1
2015-Jun-19 20:33N 37°24' W 014°16'1515.7
2015-Jun-19 19:33N 37°27' W 014°35'1615.8
2015-Jun-19 18:33N 37°30' W 014°55'1715.6
2015-Jun-19 17:26N 37°34' W 015°16'2915.5
2015-Jun-19 15:32N 37°40' W 015°53'40215.4
2015-Jun-18 13:29N 38°40' W 024°19'1515.9
2015-Jun-18 12:33N 38°42' W 024°37'1615.9
2015-Jun-18 11:33N 38°43' W 024°58'1615.9
2015-Jun-18 10:33N 38°45' W 025°18'1616.1
2015-Jun-18 09:33N 38°46' W 025°38'1616.2
2015-Jun-18 08:33N 38°48' W 025°59'1616.1
2015-Jun-18 07:33N 38°49' W 026°20'3616.5
2015-Jun-18 05:24N 38°52' W 027°05'1416.1
2015-Jun-18 04:33N 38°53' W 027°23'1616.3
2015-Jun-18 03:33N 38°54' W 027°43'1616.4
2015-Jun-18 02:33N 38°55' W 028°05'1616.1
2015-Jun-18 01:33N 38°56' W 028°25'1716.5
2015-Jun-18 00:33N 38°57' W 028°46'1616.5
2015-Jun-17 23:33N 38°58' W 029°08'1616.3
2015-Jun-17 22:33N 38°59' W 029°28'1616.1
2015-Jun-17 21:33N 38°60' W 029°49'  

Dump ship's entire track history